This is the latest recevied weather packets stored in our database for station/object K0WOI. If no packets are shown the sender has not sent any weather packets the latest 10 day(s).
| Time | Temp. | Humidity | Pressure | Rain* | Wind** | Luminosity | Snow |
|---|---|---|---|---|---|---|---|
| 1777852329 | 23.33° C | 25% | 1006.8 hPa | 0 mm | - | 37 W/m² | - |
| 1777852026 | 23.89° C | 23% | 1006.6 hPa | 0 mm | - | 39 W/m² | - |
| 1777851725 | 23.89° C | 25% | 1006.8 hPa | 0 mm | - | 41 W/m² | - |
| 1777851421 | 23.33° C | 24% | 1007 hPa | 0 mm | - | 41 W/m² | - |
| 1777851117 | 23.33° C | 24% | 1006.7 hPa | 0 mm | - | 46 W/m² | - |
| 1777850814 | 23.89° C | 23% | 1007 hPa | 0 mm | - | 51 W/m² | - |
| 1777850512 | 23.33° C | 26% | 1006.8 hPa | 0 mm | - | 46 W/m² | - |
| 1777850210 | 23.33° C | 23% | 1007 hPa | 0 mm | - | 48 W/m² | - |
| 1777849905 | 23.33° C | 27% | 1007 hPa | 0 mm | - | 142 W/m² | - |
| 1777849602 | 23.89° C | 25% | 1006.9 hPa | 0 mm | - | 97 W/m² | - |
| 1777849300 | 23.89° C | 23% | 1007 hPa | 0 mm | - | 52 W/m² | - |
| 1777848997 | 23.89° C | 22% | 1007 hPa | 0 mm | - | 149 W/m² | - |
| 1777848697 | 23.89° C | 21% | 1007.2 hPa | 0 mm | - | 54 W/m² | - |
| 1777848394 | 23.89° C | 21% | 1007 hPa | 0 mm | - | 54 W/m² | - |
| 1777848092 | 23.89° C | 24% | 1006.9 hPa | 0 mm | - | 273 W/m² | - |
| 1777847790 | 24.44° C | 22% | 1007 hPa | 0 mm | - | 240 W/m² | - |
| 1777847486 | 25° C | 21% | 1007.2 hPa | 0 mm | - | 277 W/m² | - |
| 1777847184 | 23.89° C | 25% | 1007.1 hPa | 0 mm | - | 362 W/m² | - |
| 1777846881 | 23.33° C | 24% | 1007 hPa | 0 mm | - | 186 W/m² | - |
| 1777846579 | 23.33° C | 24% | 1007.2 hPa | 0 mm | - | 190 W/m² | - |
| 1777846276 | 23.89° C | 23% | 1007.3 hPa | 0 mm | - | 173 W/m² | - |
| 1777845973 | 23.33° C | 27% | 1007.1 hPa | 0 mm | - | 346 W/m² | - |
| 1777845670 | 23.33° C | 24% | 1007.2 hPa | 0 mm | - | 173 W/m² | - |
| 1777845367 | 23.33° C | 24% | 1007.2 hPa | 0 mm | - | 149 W/m² | - |
| 1777845063 | 22.78° C | 24% | 1007.1 hPa | 0 mm | - | 176 W/m² | - |
* Rain latest hour (hover to see other rain measurements)
** Current wind speed in m/s (hover to see current wind gust speed)